Time;durP1;ratioP1;P1;durP2;ratioP2;P2;SDS_P1;SDS_P2;PMS_P1;PMS_P2;Temp;Humidity;BMP_temperature;BMP_pressure;BME280_temperature;BME280_humidity;BME280_pressure;Samples;Min_cycle;Max_cycle;Signal;HPM_P1;HPM_P2
2024/01/22 00:01:27;;;;;;;8.20;6.63;;;3.90;78.70;;;;;;4965682;28;20073;-93
2024/01/22 00:03:53;;;;;;;5.93;4.88;;;3.90;78.60;;;;;;4971364;28;20462;-92
2024/01/22 00:06:19;;;;;;;8.65;6.30;;;3.70;79.40;;;;;;4968932;28;20027;-91
2024/01/22 00:08:44;;;;;;;9.60;8.68;;;3.80;79.40;;;;;;4973943;28;20550;-94
2024/01/22 00:11:11;;;;;;;6.78;6.07;;;3.70;80.00;;;;;;4971308;28;20072;-90
2024/01/22 00:13:37;;;;;;;7.75;7.15;;;3.70;80.10;;;;;;4960156;28;20023;-94
2024/01/22 00:16:02;;;;;;;13.60;6.88;;;3.60;80.40;;;;;;4967566;28;20034;-91
2024/01/22 00:18:28;;;;;;;11.07;7.22;;;3.60;80.50;;;;;;4977715;28;20043;-90
2024/01/22 00:20:54;;;;;;;7.25;6.65;;;3.60;80.90;;;;;;4970236;28;20055;-91
2024/01/22 00:23:20;;;;;;;11.63;7.63;;;3.60;80.50;;;;;;4973964;28;20028;-90
2024/01/22 00:25:45;;;;;;;7.57;6.72;;;3.60;81.10;;;;;;4965911;28;20035;-91
2024/01/22 00:28:11;;;;;;;7.43;6.70;;;3.50;81.90;;;;;;4967611;28;20038;-91
2024/01/22 00:30:37;;;;;;;6.25;5.43;;;3.40;81.60;;;;;;4979365;28;20065;-92
2024/01/22 00:33:02;;;;;;;7.90;7.13;;;3.40;81.80;;;;;;4972858;28;20030;-90
2024/01/22 00:35:28;;;;;;;8.57;6.10;;;3.30;82.20;;;;;;4969598;28;20062;-91
2024/01/22 00:37:54;;;;;;;8.02;5.97;;;3.30;82.10;;;;;;4971329;28;20537;-90
2024/01/22 00:40:20;;;;;;;7.57;6.90;;;3.40;82.20;;;;;;4979813;28;20027;-94
2024/01/22 00:42:45;;;;;;;8.20;7.40;;;3.20;82.70;;;;;;4966532;28;20035;-92
2024/01/22 00:45:11;;;;;;;7.95;7.15;;;3.20;82.60;;;;;;4975601;28;20023;-91
2024/01/22 00:47:37;;;;;;;8.23;6.53;;;3.10;83.20;;;;;;4971583;28;20027;-91
2024/01/22 00:50:03;;;;;;;6.88;5.32;;;3.10;82.90;;;;;;4965621;28;20463;-90
2024/01/22 00:52:29;;;;;;;7.75;6.47;;;3.00;83.60;;;;;;4963405;28;20027;-96
2024/01/22 00:54:55;;;;;;;7.22;5.13;;;3.00;83.40;;;;;;4977438;28;20034;-94
2024/01/22 00:57:20;;;;;;;7.78;6.35;;;3.00;83.20;;;;;;4968128;28;20035;-91
2024/01/22 00:59:46;;;;;;;7.50;6.80;;;3.00;83.50;;;;;;4972015;28;20031;-91
2024/01/22 01:02:12;;;;;;;7.13;5.90;;;2.90;83.90;;;;;;4968181;28;20035;-92
2024/01/22 01:04:38;;;;;;;7.70;7.00;;;2.80;84.20;;;;;;4960532;28;20035;-92
2024/01/22 01:07:03;;;;;;;8.00;6.05;;;2.80;84.50;;;;;;4978509;28;20023;-91
2024/01/22 01:09:29;;;;;;;7.18;5.78;;;2.80;84.70;;;;;;4959125;28;20046;-94
2024/01/22 01:11:55;;;;;;;7.68;6.90;;;2.80;84.60;;;;;;4973879;28;20028;-93
2024/01/22 01:14:20;;;;;;;6.05;5.55;;;2.70;85.60;;;;;;4958309;28;20035;-92
2024/01/22 01:16:46;;;;;;;7.88;7.22;;;2.60;85.50;;;;;;4974854;28;20027;-93
2024/01/22 01:19:12;;;;;;;7.65;6.40;;;2.60;86.00;;;;;;4973313;28;20029;-90
2024/01/22 01:21:38;;;;;;;9.75;6.53;;;2.60;86.50;;;;;;4968669;28;20031;-92
2024/01/22 01:24:04;;;;;;;7.38;6.68;;;2.60;87.30;;;;;;4968144;28;20051;-93
2024/01/22 01:26:30;;;;;;;7.88;7.18;;;2.50;87.60;;;;;;4965478;28;20058;-91
2024/01/22 01:28:56;;;;;;;5.95;5.35;;;2.60;86.00;;;;;;4970170;28;20019;-90
2024/01/22 01:31:22;;;;;;;8.70;6.78;;;2.70;85.90;;;;;;4980521;28;20039;-91
2024/01/22 01:33:47;;;;;;;8.00;7.32;;;2.80;85.60;;;;;;4971109;28;20034;-94
2024/01/22 01:36:13;;;;;;;7.18;6.30;;;2.80;85.30;;;;;;4979701;28;20035;-90
2024/01/22 01:38:39;;;;;;;11.32;7.20;;;2.80;84.70;;;;;;4973310;28;20039;-90
2024/01/22 01:41:04;;;;;;;8.45;5.60;;;2.80;84.70;;;;;;4967724;28;20028;-93
2024/01/22 01:43:31;;;;;;;6.68;6.07;;;2.90;84.50;;;;;;4975175;28;20062;-91
2024/01/22 01:45:56;;;;;;;7.35;6.75;;;2.90;84.00;;;;;;4980727;28;20030;-91
2024/01/22 01:48:22;;;;;;;7.82;7.18;;;3.00;83.80;;;;;;4975222;28;20038;-92
2024/01/22 01:50:48;;;;;;;6.65;5.68;;;3.10;82.30;;;;;;4970752;28;20084;-91
2024/01/22 01:53:15;;;;;;;6.68;6.18;;;3.20;82.60;;;;;;4967579;28;20024;-89
2024/01/22 01:55:41;;;;;;;6.32;5.72;;;3.40;81.10;;;;;;4975761;28;20023;-92
2024/01/22 01:58:07;;;;;;;6.15;5.63;;;3.50;80.70;;;;;;4965056;28;20042;-91
2024/01/22 02:00:33;;;;;;;6.60;6.10;;;3.50;80.70;;;;;;4965718;28;20038;-93
2024/01/22 02:02:58;;;;;;;6.85;6.25;;;3.50;80.90;;;;;;4951888;28;20036;-92
2024/01/22 02:05:25;;;;;;;5.88;5.18;;;3.50;81.20;;;;;;4958451;28;20039;-90
2024/01/22 02:07:50;;;;;;;7.78;7.18;;;3.40;81.30;;;;;;4963670;28;20287;-93
2024/01/22 02:10:16;;;;;;;6.30;5.70;;;3.40;81.00;;;;;;4962594;28;20098;-92
2024/01/22 02:12:42;;;;;;;7.63;6.38;;;3.50;81.20;;;;;;4955872;28;20024;-89
2024/01/22 02:15:08;;;;;;;6.65;6.00;;;3.50;80.30;;;;;;4972261;28;20027;-92
2024/01/22 02:17:34;;;;;;;6.68;6.07;;;3.60;80.20;;;;;;4978963;28;20031;-92
2024/01/22 02:19:59;;;;;;;5.57;4.72;;;3.70;80.00;;;;;;4962551;28;20034;-92
2024/01/22 02:22:25;;;;;;;6.45;5.75;;;3.70;79.80;;;;;;4963347;28;20521;-91
2024/01/22 02:24:51;;;;;;;10.43;7.72;;;3.60;80.40;;;;;;4963875;28;20035;-92
2024/01/22 02:27:17;;;;;;;7.47;5.25;;;3.70;80.70;;;;;;4966601;28;20375;-91
2024/01/22 02:29:43;;;;;;;7.15;6.53;;;3.80;80.20;;;;;;4956495;28;20024;-90
2024/01/22 02:32:09;;;;;;;5.63;5.07;;;3.80;80.50;;;;;;4978464;28;20483;-89
2024/01/22 02:34:34;;;;;;;5.18;3.97;;;3.70;80.90;;;;;;4964890;28;20492;-92
2024/01/22 02:37:00;;;;;;;7.13;6.53;;;3.60;81.20;;;;;;4963572;28;20023;-91
2024/01/22 02:39:26;;;;;;;5.65;4.78;;;3.50;81.70;;;;;;4958672;28;20513;-91
2024/01/22 02:41:52;;;;;;;6.75;5.05;;;3.30;83.00;;;;;;4984504;28;20077;-91
2024/01/22 02:44:17;;;;;;;9.05;8.27;;;3.20;83.50;;;;;;4973051;28;20398;-89
2024/01/22 02:46:43;;;;;;;7.22;6.63;;;3.20;84.60;;;;;;4970347;28;20007;-91
2024/01/22 02:49:09;;;;;;;7.65;6.15;;;3.20;84.40;;;;;;4981931;28;20051;-92
2024/01/22 02:51:35;;;;;;;6.90;6.30;;;3.20;84.50;;;;;;4964436;28;20074;-90
2024/01/22 02:54:02;;;;;;;8.80;7.25;;;3.30;84.30;;;;;;4968702;28;20027;-91
2024/01/22 02:56:27;;;;;;;6.57;5.97;;;3.30;84.30;;;;;;4951879;29;20491;-89
2024/01/22 02:58:53;;;;;;;7.97;6.45;;;3.40;84.60;;;;;;4967135;28;20027;-90
2024/01/22 03:01:19;;;;;;;8.52;5.72;;;3.40;84.80;;;;;;4977789;28;20114;-92
2024/01/22 03:03:45;;;;;;;6.82;6.22;;;3.40;84.90;;;;;;4977935;28;20079;-91
2024/01/22 03:06:10;;;;;;;9.27;7.82;;;3.50;85.20;;;;;;4975503;28;20047;-88
2024/01/22 03:08:36;;;;;;;8.57;6.38;;;3.70;85.00;;;;;;4983361;28;20058;-93
2024/01/22 03:11:02;;;;;;;7.68;7.07;;;3.90;84.90;;;;;;4962066;28;20028;-93
2024/01/22 03:13:28;;;;;;;6.68;6.10;;;3.90;85.10;;;;;;4961840;28;20027;-89
2024/01/22 03:15:54;;;;;;;6.18;4.25;;;4.00;84.90;;;;;;4961064;28;20390;-91
2024/01/22 03:18:19;;;;;;;7.22;6.63;;;4.20;84.00;;;;;;4971587;28;20039;-92
2024/01/22 03:20:45;;;;;;;6.15;5.50;;;4.40;83.20;;;;;;4982588;28;20031;-93
2024/01/22 03:23:11;;;;;;;4.55;4.15;;;4.60;83.10;;;;;;4963857;28;20038;-91
2024/01/22 03:25:36;;;;;;;5.53;5.03;;;4.60;82.70;;;;;;4965947;28;20050;-90
2024/01/22 03:28:02;;;;;;;6.10;5.05;;;4.70;82.50;;;;;;4967266;28;20129;-92
2024/01/22 03:30:28;;;;;;;5.32;5.03;;;4.80;81.90;;;;;;4966682;28;20043;-93
2024/01/22 03:32:53;;;;;;;4.93;4.53;;;4.90;80.80;;;;;;4970059;28;20027;-91
2024/01/22 03:35:20;;;;;;;4.47;4.07;;;5.10;80.70;;;;;;4968971;28;20027;-91
2024/01/22 03:37:46;;;;;;;4.80;4.40;;;5.00;80.60;;;;;;4985049;28;20031;-91
2024/01/22 03:40:11;;;;;;;6.05;5.50;;;5.00;81.20;;;;;;4971374;28;20024;-93
2024/01/22 03:42:37;;;;;;;5.88;5.28;;;5.00;81.60;;;;;;4987197;28;20027;-90
2024/01/22 03:45:03;;;;;;;6.28;5.68;;;5.00;80.70;;;;;;4987575;28;20027;-92
2024/01/22 03:47:29;;;;;;;3.28;2.42;;;5.10;80.80;;;;;;4980928;28;20452;-92
2024/01/22 03:49:55;;;;;;;4.50;4.15;;;5.00;81.30;;;;;;4987085;28;20058;-91
2024/01/22 03:52:21;;;;;;;5.35;5.05;;;5.00;81.50;;;;;;4979730;28;20110;-91
2024/01/22 03:54:46;;;;;;;5.53;5.05;;;4.90;81.70;;;;;;4976221;28;20027;-93
2024/01/22 03:57:12;;;;;;;5.97;5.55;;;5.10;81.90;;;;;;4977082;28;20050;-91
2024/01/22 03:59:37;;;;;;;7.05;5.20;;;5.10;81.40;;;;;;4959537;28;20050;-91
2024/01/22 04:02:06;;;;;;;5.30;4.90;;;5.20;80.40;;;;;;4960244;28;20024;-92
2024/01/22 04:04:32;;;;;;;5.10;4.38;;;5.20;80.90;;;;;;4976209;28;20055;-91
2024/01/22 04:06:57;;;;;;;4.18;3.92;;;5.30;81.20;;;;;;4971017;28;20023;-89
2024/01/22 04:09:24;;;;;;;3.72;3.33;;;5.30;80.70;;;;;;4978016;28;20034;-90
2024/01/22 04:11:56;;;;;;;5.85;5.55;;;5.30;80.60;;;;;;4975923;28;20034;-92
2024/01/22 04:14:21;;;;;;;5.05;4.68;;;5.40;80.50;;;;;;4981492;28;20055;-90
2024/01/22 04:16:50;;;;;;;3.55;3.33;;;5.40;80.30;;;;;;4982342;28;20041;-92
2024/01/22 04:19:16;;;;;;;4.38;4.05;;;5.40;80.20;;;;;;4982866;28;20039;-92
2024/01/22 04:21:53;;;;;;;3.40;3.10;;;5.40;79.90;;;;;;4965242;28;20037;-89
2024/01/22 04:24:19;;;;;;;8.07;6.63;;;5.60;78.20;;;;;;4964008;28;20164;-91
2024/01/22 04:26:44;;;;;;;5.22;4.82;;;5.60;78.40;;;;;;4965103;28;20578;-91
2024/01/22 04:29:10;;;;;;;4.40;4.00;;;5.70;78.10;;;;;;4966469;28;20034;-92
2024/01/22 04:31:36;;;;;;;4.63;4.28;;;5.60;78.30;;;;;;4970013;28;20051;-90
2024/01/22 04:34:02;;;;;;;6.80;6.40;;;5.50;78.80;;;;;;4975769;28;20373;-91
2024/01/22 04:36:28;;;;;;;4.63;4.28;;;5.40;79.00;;;;;;4975622;28;20030;-92
2024/01/22 04:38:53;;;;;;;5.35;4.95;;;5.30;78.70;;;;;;4961114;28;20035;-91
2024/01/22 04:41:19;;;;;;;5.38;5.07;;;5.30;79.00;;;;;;4967494;28;20114;-90
2024/01/22 04:43:45;;;;;;;5.55;4.82;;;5.20;79.30;;;;;;4977088;28;20576;-91
2024/01/22 04:46:10;;;;;;;5.75;5.45;;;5.30;79.10;;;;;;4967700;28;20436;-93
2024/01/22 04:48:37;;;;;;;5.28;3.65;;;5.50;78.60;;;;;;4980861;28;20082;-92
2024/01/22 04:51:03;;;;;;;5.20;4.80;;;5.50;78.40;;;;;;4985770;28;20031;-93
2024/01/22 04:53:29;;;;;;;5.20;4.90;;;5.60;77.50;;;;;;4982261;28;20031;-92
2024/01/22 04:55:55;;;;;;;5.63;5.20;;;5.60;77.70;;;;;;4981955;28;20026;-91
2024/01/22 04:58:23;;;;;;;4.53;4.13;;;5.60;77.50;;;;;;4969004;28;20035;-90
2024/01/22 05:00:49;;;;;;;5.18;4.88;;;5.70;77.00;;;;;;4973307;28;20108;-92
2024/01/22 05:03:15;;;;;;;4.80;3.42;;;5.80;76.70;;;;;;4981077;28;20034;-90
2024/01/22 05:05:41;;;;;;;5.15;4.72;;;5.90;75.50;;;;;;4986297;28;20038;-92
2024/01/22 05:08:07;;;;;;;5.50;5.10;;;6.00;74.70;;;;;;4999503;28;20047;-93
2024/01/22 05:10:32;;;;;;;4.93;4.63;;;6.10;73.60;;;;;;4985267;28;20005;-91
2024/01/22 05:12:58;;;;;;;2.65;2.30;;;6.10;73.60;;;;;;4974876;28;20358;-91
2024/01/22 05:15:24;;;;;;;6.22;3.78;;;6.20;73.20;;;;;;4973855;28;20039;-91
2024/01/22 05:17:50;;;;;;;5.18;4.65;;;6.30;73.20;;;;;;4994182;28;20019;-89
2024/01/22 05:20:18;;;;;;;3.70;3.40;;;6.40;72.40;;;;;;4964050;28;20098;-93
2024/01/22 05:22:45;;;;;;;4.20;3.75;;;6.50;71.60;;;;;;4979617;28;20023;-91
2024/01/22 05:25:11;;;;;;;3.67;3.40;;;6.50;71.20;;;;;;4966000;28;20023;-90
2024/01/22 05:27:37;;;;;;;2.60;2.40;;;6.60;70.50;;;;;;4965422;28;20090;-89
2024/01/22 05:30:03;;;;;;;3.38;3.17;;;6.60;70.90;;;;;;4961805;28;20701;-95
2024/01/22 05:32:32;;;;;;;2.53;2.33;;;6.50;70.40;;;;;;4964647;28;20096;-88
2024/01/22 05:34:57;;;;;;;6.30;4.25;;;6.60;70.20;;;;;;4958420;28;20748;-91
2024/01/22 05:37:24;;;;;;;4.80;4.40;;;6.60;68.80;;;;;;4966790;28;20065;-91
2024/01/22 05:39:53;;;;;;;3.33;3.10;;;6.60;69.00;;;;;;4972016;28;20609;-90
2024/01/22 05:42:21;;;;;;;3.50;3.20;;;6.70;69.40;;;;;;4960214;28;20035;-92
2024/01/22 05:44:48;;;;;;;4.68;4.05;;;6.70;69.20;;;;;;4946954;29;20147;-91
2024/01/22 05:47:19;;;;;;;4.35;4.05;;;6.80;68.70;;;;;;4995825;28;20051;-90
2024/01/22 05:49:45;;;;;;;5.00;4.18;;;6.90;67.90;;;;;;4993138;28;20090;-90
2024/01/22 05:52:14;;;;;;;5.00;4.80;;;7.00;67.80;;;;;;4980140;28;20027;-91
2024/01/22 05:54:41;;;;;;;5.35;5.03;;;7.00;66.70;;;;;;4980785;28;20110;-91
2024/01/22 05:57:12;;;;;;;5.10;4.80;;;7.10;66.80;;;;;;4965507;28;20035;-90
2024/01/22 05:59:40;;;;;;;3.63;2.58;;;7.00;66.50;;;;;;4945816;29;20031;-90
2024/01/22 06:02:06;;;;;;;3.85;3.28;;;7.10;66.50;;;;;;4960394;28;20038;-90
2024/01/22 06:04:32;;;;;;;6.07;5.53;;;7.10;67.20;;;;;;4959575;28;20065;-90
2024/01/22 06:06:58;;;;;;;3.92;3.20;;;7.10;67.00;;;;;;4961993;28;20078;-89
2024/01/22 06:09:24;;;;;;;4.60;4.30;;;7.10;66.80;;;;;;4962689;28;20027;-89
2024/01/22 06:11:49;;;;;;;3.45;3.22;;;7.00;66.40;;;;;;4977941;28;20162;-91
2024/01/22 06:14:16;;;;;;;4.35;4.07;;;7.10;66.40;;;;;;4980808;28;20019;-90
2024/01/22 06:16:42;;;;;;;3.47;3.08;;;7.00;65.80;;;;;;4974494;28;20050;-90
2024/01/22 06:19:07;;;;;;;4.30;4.00;;;7.00;66.30;;;;;;4962586;28;20483;-91
2024/01/22 06:21:33;;;;;;;5.88;5.53;;;7.00;65.40;;;;;;4967295;28;20027;-90
2024/01/22 06:23:59;;;;;;;3.55;3.25;;;7.00;63.90;;;;;;4982286;28;20025;-90
2024/01/22 06:26:24;;;;;;;5.30;4.72;;;7.10;62.60;;;;;;4982706;28;20053;-90
2024/01/22 06:28:53;;;;;;;3.97;3.67;;;7.20;62.20;;;;;;4982569;28;20062;-91
2024/01/22 06:31:19;;;;;;;5.03;3.78;;;7.20;61.00;;;;;;4971545;28;20118;-89
2024/01/22 06:33:47;;;;;;;4.00;3.00;;;7.30;60.40;;;;;;4977314;28;20055;-91
2024/01/22 06:36:12;;;;;;;;;;;7.50;59.30;;;;;;4981618;28;20094;-90
2024/01/22 06:38:38;;;;;;;3.17;2.97;;;7.50;58.60;;;;;;4982552;28;19941;-92
2024/01/22 06:41:10;;;;;;;4.43;3.97;;;7.60;57.00;;;;;;4983928;28;20027;-91
2024/01/22 06:43:36;;;;;;;4.00;3.70;;;7.70;57.20;;;;;;4986996;28;20035;-90
2024/01/22 06:46:03;;;;;;;4.07;1.88;;;7.90;55.90;;;;;;4972746;28;20433;-90
2024/01/22 06:48:28;;;;;;;4.75;4.35;;;8.00;56.20;;;;;;4979681;28;20066;-90
2024/01/22 06:50:54;;;;;;;4.63;4.28;;;8.20;54.90;;;;;;4988421;28;20015;-90
2024/01/22 06:53:20;;;;;;;4.10;3.45;;;8.30;54.50;;;;;;4984817;28;20027;-91
2024/01/22 06:55:46;;;;;;;4.55;4.25;;;8.30;55.10;;;;;;4997713;28;20054;-91
2024/01/22 06:58:11;;;;;;;3.85;3.55;;;8.30;55.30;;;;;;4980525;28;20534;-90
2024/01/22 07:00:37;;;;;;;4.35;4.05;;;8.50;54.20;;;;;;4960523;28;20027;-90
2024/01/22 07:03:04;;;;;;;3.92;3.10;;;8.50;54.80;;;;;;4962059;28;20032;-91
2024/01/22 07:05:31;;;;;;;3.70;3.40;;;8.50;54.50;;;;;;4977368;28;20027;-90
2024/01/22 07:08:05;;;;;;;3.80;3.50;;;8.70;53.30;;;;;;4961240;28;20473;-96
2024/01/22 07:10:33;;;;;;;3.97;3.78;;;8.80;53.20;;;;;;4963713;28;20041;-92
2024/01/22 07:13:00;;;;;;;2.67;2.47;;;8.70;54.20;;;;;;4965590;28;20129;-90
2024/01/22 07:15:26;;;;;;;3.05;2.38;;;8.80;52.90;;;;;;4972260;28;20140;-95
2024/01/22 07:18:09;;;;;;;3.22;2.45;;;8.90;53.10;;;;;;4970541;28;20026;-91
2024/01/22 07:20:35;;;;;;;3.17;2.67;;;9.10;51.80;;;;;;4982163;28;20517;-90
2024/01/22 07:23:04;;;;;;;3.55;3.03;;;9.10;51.40;;;;;;4968860;28;20094;-95
2024/01/22 07:25:34;;;;;;;2.75;2.55;;;9.10;52.70;;;;;;4971620;28;20038;-90
2024/01/22 07:27:59;;;;;;;3.38;3.08;;;9.10;51.60;;;;;;4973149;28;20035;-93
2024/01/22 07:30:28;;;;;;;4.50;4.22;;;9.20;51.40;;;;;;4969690;28;20122;-92
2024/01/22 07:32:57;;;;;;;4.55;4.22;;;9.20;51.40;;;;;;4970686;28;20039;-91
2024/01/22 07:35:34;;;;;;;3.80;3.65;;;9.10;52.10;;;;;;4985517;28;20026;-96
2024/01/22 07:38:00;;;;;;;4.10;3.35;;;9.10;51.90;;;;;;4972274;28;20019;-93
2024/01/22 07:40:26;;;;;;;3.08;2.78;;;9.30;51.90;;;;;;4973480;28;20039;-90
2024/01/22 07:42:55;;;;;;;3.40;3.08;;;9.30;52.00;;;;;;4975807;28;20041;-92
2024/01/22 07:45:21;;;;;;;3.00;2.75;;;9.40;54.50;;;;;;4970760;28;20058;-92
2024/01/22 07:47:46;;;;;;;5.03;4.63;;;9.50;57.40;;;;;;4989667;28;20031;-91
2024/01/22 07:50:14;;;;;;;4.00;3.45;;;9.50;60.30;;;;;;4974347;28;20038;-90
2024/01/22 07:52:45;;;;;;;2.78;1.75;;;9.50;61.00;;;;;;4977016;28;20413;-92
2024/01/22 07:55:16;;;;;;;4.38;2.90;;;9.50;62.60;;;;;;4973128;28;20019;-91
2024/01/22 07:57:42;;;;;;;4.15;3.78;;;9.50;64.20;;;;;;4974569;28;20174;-89
2024/01/22 08:00:11;;;;;;;2.25;2.05;;;9.50;65.90;;;;;;4976571;28;21292;-92
2024/01/22 08:02:39;;;;;;;3.95;3.70;;;9.60;65.20;;;;;;4974734;28;20066;-92
2024/01/22 08:05:12;;;;;;;5.07;4.43;;;9.70;65.50;;;;;;4971344;28;20050;-90
2024/01/22 08:07:42;;;;;;;2.33;1.77;;;9.70;66.80;;;;;;4989092;28;20075;-89
2024/01/22 08:10:09;;;;;;;3.70;3.50;;;9.80;67.70;;;;;;4967897;28;20035;-92
2024/01/22 08:12:37;;;;;;;2.75;2.53;;;9.90;68.00;;;;;;4976673;28;20014;-89
2024/01/22 08:15:03;;;;;;;3.25;3.05;;;10.00;68.00;;;;;;4974015;28;20106;-90
2024/01/22 08:17:32;;;;;;;3.15;2.85;;;10.20;67.80;;;;;;4968859;28;20069;-92
2024/01/22 08:19:57;;;;;;;3.38;3.17;;;10.20;68.20;;;;;;4973300;28;20035;-94
2024/01/22 08:22:23;;;;;;;2.78;2.25;;;10.20;68.50;;;;;;4975751;28;20049;-91
2024/01/22 08:24:49;;;;;;;3.28;3.08;;;10.30;68.30;;;;;;4974581;28;20031;-93
2024/01/22 08:27:14;;;;;;;3.30;2.75;;;10.50;68.00;;;;;;4973098;28;20053;-91
2024/01/22 08:29:43;;;;;;;3.13;2.92;;;10.60;68.50;;;;;;4989743;28;20022;-91
2024/01/22 08:32:21;;;;;;;2.85;2.65;;;10.60;70.20;;;;;;4987308;28;20082;-92
2024/01/22 08:34:46;;;;;;;3.33;2.65;;;10.60;73.80;;;;;;4967386;28;20039;-91
2024/01/22 08:37:12;;;;;;;2.30;2.08;;;10.40;75.50;;;;;;4974332;28;20469;-93
2024/01/22 08:39:38;;;;;;;2.95;2.75;;;10.50;77.30;;;;;;4974604;28;20038;-89
2024/01/22 08:42:04;;;;;;;4.20;2.70;;;10.40;79.70;;;;;;4971921;28;20031;-91
2024/01/22 08:44:29;;;;;;;2.95;2.65;;;10.20;80.80;;;;;;4971653;28;20027;-92
2024/01/22 08:46:55;;;;;;;5.10;3.58;;;10.20;82.60;;;;;;4971794;28;20030;-89
2024/01/22 08:49:21;;;;;;;3.40;2.33;;;10.10;84.80;;;;;;4987399;28;20521;-92
2024/01/22 08:51:46;;;;;;;2.42;2.25;;;10.00;88.80;;;;;;4974405;28;20127;-94
2024/01/22 08:54:12;;;;;;;3.95;1.65;;;9.70;90.10;;;;;;4986543;28;20026;-91
2024/01/22 08:56:38;;;;;;;3.20;1.70;;;9.60;92.50;;;;;;4970354;28;20969;-93
2024/01/22 08:59:04;;;;;;;2.25;2.08;;;9.70;94.30;;;;;;4969847;28;20098;-92
2024/01/22 09:01:29;;;;;;;2.58;2.47;;;9.60;94.20;;;;;;4975682;28;20069;-90
2024/01/22 09:03:55;;;;;;;2.80;1.67;;;9.60;93.80;;;;;;4971790;28;21191;-93
2024/01/22 09:06:24;;;;;;;4.03;2.88;;;9.60;93.70;;;;;;4990417;28;20077;-92
2024/01/22 09:08:50;;;;;;;3.13;2.90;;;9.50;93.50;;;;;;4974355;28;20552;-94
2024/01/22 09:11:16;;;;;;;2.72;2.53;;;9.60;92.10;;;;;;4985723;28;20039;-91
2024/01/22 09:13:41;;;;;;;3.75;3.45;;;9.60;93.20;;;;;;4983580;28;20058;-91
2024/01/22 09:16:08;;;;;;;2.80;2.60;;;9.60;93.90;;;;;;4970522;28;20028;-91
2024/01/22 09:18:35;;;;;;;2.03;1.92;;;9.60;93.90;;;;;;4972770;28;20476;-91
2024/01/22 09:21:03;;;;;;;4.85;4.45;;;9.70;93.40;;;;;;4971825;28;20037;-91
2024/01/22 09:23:28;;;;;;;3.00;2.70;;;9.70;93.70;;;;;;4971615;28;20031;-92
2024/01/22 09:25:54;;;;;;;3.53;3.22;;;9.60;93.90;;;;;;4971643;28;20034;-92
2024/01/22 09:28:21;;;;;;;3.13;2.92;;;9.70;93.00;;;;;;4969002;28;20034;-91
2024/01/22 09:30:46;;;;;;;3.35;3.10;;;9.70;92.40;;;;;;4969640;28;20029;-94
2024/01/22 09:33:12;;;;;;;3.47;3.05;;;9.80;91.50;;;;;;4970902;28;20027;-90
2024/01/22 09:35:43;;;;;;;2.42;2.10;;;9.90;90.00;;;;;;4982243;28;20787;-92
2024/01/22 09:38:09;;;;;;;3.20;3.00;;;9.90;88.70;;;;;;4966979;28;20031;-90
2024/01/22 09:40:35;;;;;;;2.67;2.47;;;10.00;87.90;;;;;;4895240;28;20119;-90
2024/01/22 09:43:04;;;;;;;2.63;2.42;;;10.00;87.30;;;;;;4900024;29;20402;-92
2024/01/22 09:45:31;;;;;;;2.85;2.65;;;10.00;85.70;;;;;;4899958;29;20096;-92
2024/01/22 09:47:59;;;;;;;1.77;1.67;;;10.10;84.00;;;;;;4907568;29;20044;-94
2024/01/22 09:50:25;;;;;;;2.35;2.13;;;10.20;84.20;;;;;;4913268;29;20021;-91
2024/01/22 09:52:54;;;;;;;3.00;2.78;;;10.20;84.20;;;;;;4906304;29;20028;-92
2024/01/22 09:55:25;;;;;;;2.55;2.35;;;10.30;85.50;;;;;;4904021;29;20392;-90
2024/01/22 09:57:58;;;;;;;2.10;2.00;;;10.20;84.80;;;;;;4906124;29;20028;-91
2024/01/22 10:00:26;;;;;;;4.18;3.75;;;10.20;86.20;;;;;;4910012;29;20039;-90
2024/01/22 10:02:55;;;;;;;3.72;2.90;;;10.20;86.50;;;;;;4904881;29;20499;-91
2024/01/22 10:05:20;;;;;;;2.38;2.17;;;10.20;86.80;;;;;;4903788;29;20088;-89
2024/01/22 10:07:48;;;;;;;3.03;2.75;;;10.10;86.90;;;;;;4902983;29;20036;-90
2024/01/22 10:10:15;;;;;;;3.35;3.05;;;10.00;86.80;;;;;;4915803;29;20037;-91
2024/01/22 10:12:59;;;;;;;3.53;3.20;;;10.00;87.50;;;;;;4903036;29;20127;-90
2024/01/22 10:15:29;;;;;;;3.78;3.28;;;9.90;86.80;;;;;;4901356;29;20029;-93
2024/01/22 10:18:07;;;;;;;2.75;2.65;;;9.90;88.50;;;;;;4920479;29;20059;-91
2024/01/22 10:20:32;;;;;;;3.83;3.00;;;9.70;88.90;;;;;;4906245;29;20096;-91
2024/01/22 10:23:01;;;;;;;5.47;2.97;;;9.70;90.00;;;;;;4902419;29;20040;-96
2024/01/22 10:25:28;;;;;;;4.30;3.83;;;9.70;91.50;;;;;;4903997;29;20096;-92
2024/01/22 10:28:17;;;;;;;3.22;2.95;;;9.60;92.60;;;;;;4907458;29;20041;-91
2024/01/22 10:30:46;;;;;;;4.50;2.15;;;9.60;93.70;;;;;;4935211;29;20447;-90
2024/01/22 10:33:14;;;;;;;3.17;2.85;;;9.60;93.00;;;;;;4904789;29;20028;-93
2024/01/22 10:35:40;;;;;;;4.93;4.00;;;9.60;94.40;;;;;;4906687;29;20064;-89
2024/01/22 10:38:08;;;;;;;3.42;3.13;;;9.40;94.70;;;;;;4904972;29;20096;-91
2024/01/22 10:40:34;;;;;;;3.55;3.35;;;9.30;95.30;;;;;;4904434;29;20029;-90
2024/01/22 10:43:19;;;;;;;4.03;3.55;;;9.20;97.60;;;;;;4903854;29;20044;-90
2024/01/22 10:45:51;;;;;;;4.40;3.20;;;9.10;97.40;;;;;;4902985;29;20123;-93
2024/01/22 10:48:18;;;;;;;4.18;3.78;;;9.10;98.60;;;;;;4901640;29;20072;-91
2024/01/22 10:50:44;;;;;;;3.42;3.00;;;9.10;98.00;;;;;;4902588;29;20331;-90
2024/01/22 10:53:13;;;;;;;2.67;2.45;;;9.20;98.00;;;;;;4929808;29;20035;-93
2024/01/22 10:55:39;;;;;;;3.50;3.08;;;9.30;96.90;;;;;;4907912;29;20032;-91
2024/01/22 10:58:26;;;;;;;3.35;3.22;;;9.20;97.00;;;;;;4917012;29;20041;-90
2024/01/22 11:01:09;;;;;;;2.67;2.47;;;9.40;97.10;;;;;;4904325;29;20032;-92
2024/01/22 11:03:38;;;;;;;3.05;2.85;;;9.50;97.40;;;;;;4902153;29;20395;-90
2024/01/22 11:06:07;;;;;;;2.97;2.60;;;9.60;96.80;;;;;;4901639;29;20044;-91
2024/01/22 11:08:35;;;;;;;3.58;3.38;;;9.60;96.50;;;;;;4906368;29;20024;-90
2024/01/22 11:11:02;;;;;;;3.60;3.30;;;9.60;97.10;;;;;;4904676;29;20050;-90
2024/01/22 11:13:28;;;;;;;2.97;2.78;;;9.60;98.40;;;;;;4907427;29;20032;-92
2024/01/22 11:15:55;;;;;;;3.10;2.42;;;9.60;99.80;;;;;;4909411;29;20056;-95
2024/01/22 11:18:21;;;;;;;3.47;3.00;;;9.50;99.90;;;;;;4907640;29;20032;-90
2024/01/22 11:20:50;;;;;;;3.80;3.50;;;9.60;99.90;;;;;;4903718;29;20033;-94
2024/01/22 11:23:16;;;;;;;3.28;2.97;;;9.60;99.90;;;;;;4911950;29;20113;-90
2024/01/22 11:25:45;;;;;;;3.15;2.67;;;9.80;99.90;;;;;;4912291;29;20055;-93
2024/01/22 11:28:15;;;;;;;3.55;3.35;;;9.80;99.90;;;;;;4905596;29;20036;-91
2024/01/22 11:30:42;;;;;;;3.35;3.15;;;10.00;99.70;;;;;;4910164;29;20036;-93
2024/01/22 11:33:24;;;;;;;5.75;3.40;;;10.10;98.80;;;;;;4908191;29;20028;-94
2024/01/22 11:35:50;;;;;;;2.47;2.35;;;10.20;98.50;;;;;;4913528;29;20035;-90
2024/01/22 11:38:53;;;;;;;2.85;2.65;;;10.40;98.40;;;;;;4906091;29;20028;-91
2024/01/22 11:41:41;;;;;;;3.05;2.72;;;10.50;98.50;;;;;;4912226;29;20076;-89
2024/01/22 11:44:06;;;;;;;2.28;2.08;;;10.60;97.80;;;;;;4904663;29;20476;-91
2024/01/22 11:46:32;;;;;;;3.03;2.92;;;10.80;97.60;;;;;;4912386;29;20029;-93
2024/01/22 11:49:09;;;;;;;3.35;3.15;;;10.80;98.20;;;;;;4909391;29;20087;-94
2024/01/22 11:51:34;;;;;;;2.58;2.47;;;10.90;98.70;;;;;;4912023;29;20036;-90
2024/01/22 11:54:00;;;;;;;5.78;2.10;;;10.90;99.80;;;;;;4905990;29;20032;-95
2024/01/22 11:56:26;;;;;;;2.70;2.60;;;11.00;99.90;;;;;;4909405;29;20115;-92
2024/01/22 11:59:02;;;;;;;5.00;3.72;;;10.90;99.90;;;;;;4915399;29;20036;-92
2024/01/22 12:01:28;;;;;;;4.97;2.20;;;10.80;99.90;;;;;;4910624;29;20028;-90
2024/01/22 12:03:54;;;;;;;1.63;1.52;;;10.80;99.90;;;;;;4912207;29;20024;-95
2024/01/22 12:06:21;;;;;;;2.88;2.53;;;10.80;99.90;;;;;;4914889;29;20448;-91
2024/01/22 12:08:59;;;;;;;2.40;2.28;;;10.80;99.90;;;;;;4919115;29;20056;-89
2024/01/22 12:11:36;;;;;;;1.17;1.05;;;10.80;99.90;;;;;;4916576;29;20280;-92
2024/01/22 12:14:02;;;;;;;2.80;2.47;;;10.90;99.90;;;;;;4909495;29;20035;-94
2024/01/22 12:16:28;;;;;;;2.17;1.98;;;11.00;99.90;;;;;;4913029;29;20032;-94
2024/01/22 12:18:57;;;;;;;2.30;2.20;;;11.00;99.90;;;;;;4912357;29;20258;-91
2024/01/22 12:21:23;;;;;;;1.88;1.75;;;11.00;99.90;;;;;;4907999;29;20567;-94
2024/01/22 12:23:49;;;;;;;3.58;3.35;;;11.00;99.90;;;;;;4903718;29;20557;-90
2024/01/22 12:26:23;;;;;;;2.50;2.35;;;10.90;99.90;;;;;;4915001;29;20052;-91
2024/01/22 12:28:55;;;;;;;2.65;2.47;;;10.90;99.90;;;;;;4918162;29;20112;-91
2024/01/22 12:31:21;;;;;;;2.53;2.20;;;11.00;99.10;;;;;;4914968;29;20028;-92
2024/01/22 12:33:47;;;;;;;3.38;3.28;;;11.00;99.50;;;;;;4907725;29;20066;-90
2024/01/22 12:36:14;;;;;;;2.97;2.78;;;11.00;98.70;;;;;;4908109;29;20044;-91
2024/01/22 12:38:52;;;;;;;1.85;1.75;;;10.90;99.50;;;;;;4905744;29;20205;-92
2024/01/22 12:41:19;;;;;;;2.95;2.78;;;10.90;99.20;;;;;;4937520;29;20046;-92
2024/01/22 12:43:46;;;;;;;2.25;2.10;;;10.90;99.10;;;;;;4907817;29;20032;-90
2024/01/22 12:46:16;;;;;;;1.95;1.85;;;11.00;97.30;;;;;;4912153;29;20036;-91
2024/01/22 12:48:45;;;;;;;2.50;1.42;;;11.00;97.50;;;;;;4906134;29;20120;-91
2024/01/22 12:51:12;;;;;;;2.70;2.60;;;11.00;98.30;;;;;;4907983;29;20036;-93
2024/01/22 12:53:44;;;;;;;3.40;3.20;;;10.90;99.30;;;;;;4911103;29;20033;-92
2024/01/22 12:56:10;;;;;;;2.30;2.20;;;10.90;99.90;;;;;;4902901;29;20032;-92